createdAt,value
2023-02-14T00:00:24.674Z,4.65
2023-02-14T00:00:57.336Z,4.65
2023-02-14T00:01:29.573Z,4.67
2023-02-14T00:02:02.027Z,4.65
2023-02-14T00:02:34.560Z,4.64
2023-02-14T00:03:07.159Z,4.67
2023-02-14T00:03:39.563Z,4.67
2023-02-14T00:04:12.039Z,4.65
2023-02-14T00:04:44.483Z,4.65
2023-02-14T00:05:16.875Z,4.69
2023-02-14T00:05:49.399Z,4.67
2023-02-14T00:06:21.868Z,4.65
2023-02-14T00:06:54.334Z,4.65
2023-02-14T00:07:26.781Z,4.65
2023-02-14T00:07:59.201Z,4.64
2023-02-14T00:08:31.668Z,4.61
2023-02-14T00:09:04.128Z,4.62
2023-02-14T00:09:36.589Z,4.59
2023-02-14T00:10:09.043Z,4.58
2023-02-14T00:10:41.524Z,4.58
2023-02-14T00:11:14.027Z,4.57
2023-02-14T00:11:46.436Z,4.55
2023-02-14T00:12:18.891Z,4.55
2023-02-14T00:12:51.346Z,4.54
2023-02-14T00:13:23.793Z,4.54
2023-02-14T00:13:56.229Z,4.54
2023-02-14T00:14:28.753Z,4.54
2023-02-14T00:15:01.220Z,4.52
2023-02-14T00:15:33.719Z,4.52
2023-02-14T00:16:06.240Z,4.47
2023-02-14T00:16:38.650Z,4.47
2023-02-14T00:17:11.153Z,4.46
2023-02-14T00:17:43.625Z,4.47
2023-02-14T00:18:16.438Z,4.46
2023-02-14T00:18:48.506Z,4.47
2023-02-14T00:19:20.971Z,4.44
2023-02-14T00:19:53.467Z,4.44
2023-02-14T00:20:26.007Z,4.43
2023-02-14T00:20:58.718Z,4.43
2023-02-14T00:21:30.920Z,4.43
2023-02-14T00:22:03.372Z,4.40
2023-02-14T00:22:35.869Z,4.37
2023-02-14T00:23:08.317Z,4.36
2023-02-14T00:23:40.776Z,4.32
2023-02-14T00:24:13.263Z,4.32
2023-02-14T00:24:45.710Z,4.28
2023-02-14T00:25:18.142Z,4.26
2023-02-14T00:25:50.549Z,4.28
2023-02-14T00:26:23.009Z,4.29
2023-02-14T00:26:55.474Z,4.28
2023-02-14T00:27:27.920Z,4.32
2023-02-14T00:28:01.077Z,4.29
2023-02-14T00:28:33.540Z,4.32
2023-02-14T00:29:06.026Z,4.29
2023-02-14T00:29:38.470Z,4.32
2023-02-14T00:30:10.964Z,4.29
2023-02-14T00:30:43.420Z,4.32
2023-02-14T00:31:15.948Z,4.34
2023-02-14T00:31:48.432Z,4.34
2023-02-14T00:32:20.809Z,4.34
2023-02-14T00:32:53.245Z,4.34
2023-02-14T00:33:25.692Z,4.33
2023-02-14T00:33:58.131Z,4.34
2023-02-14T00:34:30.574Z,4.34
2023-02-14T00:35:03.020Z,4.32
2023-02-14T00:35:35.499Z,4.32
2023-02-14T00:36:08.023Z,4.33
2023-02-14T00:36:40.489Z,4.32
2023-02-14T00:37:13.041Z,4.32
2023-02-14T00:37:45.474Z,4.32
2023-02-14T00:38:17.892Z,4.33
2023-02-14T00:38:50.367Z,4.32
2023-02-14T00:39:22.795Z,4.32
2023-02-14T00:39:55.292Z,4.32
2023-02-14T00:40:27.730Z,4.32
2023-02-14T00:41:00.359Z,4.29
2023-02-14T00:41:32.639Z,4.34
2023-02-14T00:42:05.090Z,4.32
2023-02-14T00:42:37.561Z,4.32
2023-02-14T00:43:09.992Z,4.32
2023-02-14T00:43:42.469Z,4.33
2023-02-14T00:44:14.945Z,4.33
2023-02-14T00:44:47.412Z,4.33
2023-02-14T00:45:19.862Z,4.32
2023-02-14T00:45:52.357Z,4.29
2023-02-14T00:46:24.771Z,4.29
2023-02-14T00:46:57.209Z,4.32
2023-02-14T00:47:29.692Z,4.29
2023-02-14T00:48:02.216Z,4.32
2023-02-14T00:48:34.668Z,4.29
2023-02-14T00:49:07.124Z,4.29
2023-02-14T00:49:39.641Z,4.32
2023-02-14T00:50:12.082Z,4.33
2023-02-14T00:50:44.569Z,4.28
2023-02-14T00:51:17.021Z,4.29
2023-02-14T00:51:49.476Z,4.28
2023-02-14T00:52:21.957Z,4.26
2023-02-14T00:52:54.421Z,4.24
2023-02-14T00:53:26.865Z,4.21
2023-02-14T00:53:59.296Z,4.22
2023-02-14T00:54:31.789Z,4.19
2023-02-14T00:55:04.237Z,4.18
2023-02-14T00:55:36.678Z,4.18
2023-02-14T00:56:09.315Z,4.15
2023-02-14T00:56:41.669Z,4.12
2023-02-14T00:57:14.176Z,4.12
2023-02-14T00:57:46.542Z,4.10
2023-02-14T00:58:19.051Z,4.08
2023-02-14T00:58:51.506Z,4.06
2023-02-14T00:59:23.956Z,4.03
2023-02-14T00:59:56.397Z,4.00
2023-02-14T01:00:28.864Z,3.97
2023-02-14T01:01:01.555Z,4.00
2023-02-14T01:01:34.386Z,3.94
2023-02-14T01:02:06.877Z,3.92
2023-02-14T01:02:39.383Z,3.89
2023-02-14T01:03:11.763Z,3.85
2023-02-14T01:03:44.245Z,3.83
2023-02-14T01:04:16.686Z,3.85
2023-02-14T01:04:49.140Z,3.82
2023-02-14T01:05:21.593Z,3.83
2023-02-14T01:05:54.034Z,3.82
2023-02-14T01:06:26.543Z,3.85
2023-02-14T01:06:59.044Z,3.85
2023-02-14T01:07:31.469Z,3.86
2023-02-14T01:08:03.913Z,3.86
2023-02-14T01:08:36.389Z,3.86
2023-02-14T01:09:08.829Z,3.85
2023-02-14T01:09:41.303Z,3.83
2023-02-14T01:10:13.731Z,3.85
2023-02-14T01:10:46.209Z,3.85
2023-02-14T01:11:18.644Z,3.85
2023-02-14T01:11:51.113Z,3.88
2023-02-14T01:12:23.562Z,3.86
2023-02-14T01:12:56.017Z,3.85
2023-02-14T01:13:28.459Z,3.85
2023-02-14T01:14:00.919Z,3.85
2023-02-14T01:14:33.379Z,3.83
2023-02-14T01:15:05.832Z,3.85
2023-02-14T01:15:38.281Z,3.83
2023-02-14T01:16:10.751Z,3.85
2023-02-14T01:16:43.229Z,3.82
2023-02-14T01:17:15.635Z,3.82
2023-02-14T01:17:48.085Z,3.80
2023-02-14T01:18:20.537Z,3.80
2023-02-14T01:18:53.038Z,3.82
2023-02-14T01:19:25.544Z,3.82
2023-02-14T01:19:58.026Z,3.80
2023-02-14T01:20:30.433Z,3.82
2023-02-14T01:21:02.887Z,3.80
2023-02-14T01:21:35.332Z,3.82
2023-02-14T01:22:07.802Z,3.80
2023-02-14T01:22:40.283Z,3.79
2023-02-14T01:23:12.713Z,3.80
2023-02-14T01:23:45.205Z,3.79
2023-02-14T01:24:17.653Z,3.76
2023-02-14T01:24:50.149Z,3.75
2023-02-14T01:25:22.642Z,3.75
2023-02-14T01:25:55.114Z,3.71
2023-02-14T01:26:27.564Z,3.71
2023-02-14T01:27:00.065Z,3.67
2023-02-14T01:27:32.468Z,3.62
2023-02-14T01:28:04.905Z,3.62
2023-02-14T01:28:37.354Z,3.60
2023-02-14T01:29:09.807Z,3.60
2023-02-14T01:29:42.250Z,3.58
2023-02-14T01:30:14.771Z,3.57
2023-02-14T01:30:47.267Z,3.53
2023-02-14T01:31:19.777Z,3.53
2023-02-14T01:31:52.160Z,3.53
2023-02-14T01:32:24.563Z,3.57
2023-02-14T01:32:57.011Z,3.54
2023-02-14T01:33:29.442Z,3.57
2023-02-14T01:34:01.947Z,3.58
2023-02-14T01:34:34.392Z,3.60
2023-02-14T01:35:06.856Z,3.58
2023-02-14T01:35:39.334Z,3.60
2023-02-14T01:36:11.799Z,3.58
2023-02-14T01:36:44.269Z,3.57
2023-02-14T01:37:16.737Z,3.54
2023-02-14T01:37:49.291Z,3.54
2023-02-14T01:38:21.708Z,3.52
2023-02-14T01:38:54.177Z,3.52
2023-02-14T01:39:26.644Z,3.47
2023-02-14T01:39:59.151Z,3.47
2023-02-14T01:40:31.621Z,3.44
2023-02-14T01:41:04.112Z,3.43
2023-02-14T01:41:36.573Z,3.43
2023-02-14T01:42:09.095Z,3.40
2023-02-14T01:42:41.567Z,3.40
2023-02-14T01:43:14.036Z,3.39
2023-02-14T01:43:46.504Z,3.36
2023-02-14T01:44:18.983Z,3.34
2023-02-14T01:44:51.461Z,3.31
2023-02-14T01:45:23.906Z,3.28
2023-02-14T01:45:56.464Z,3.30
2023-02-14T01:46:28.874Z,3.30
2023-02-14T01:47:01.372Z,3.27
2023-02-14T01:47:33.847Z,3.24
2023-02-14T01:48:06.347Z,3.23
2023-02-14T01:48:38.836Z,3.21
2023-02-14T01:49:11.312Z,3.16
2023-02-14T01:49:43.938Z,3.15
2023-02-14T01:50:16.397Z,3.09
2023-02-14T01:50:48.869Z,3.12
2023-02-14T01:51:21.302Z,3.09
2023-02-14T01:51:53.753Z,3.06
2023-02-14T01:52:26.190Z,3.09
2023-02-14T01:52:58.634Z,3.06
2023-02-14T01:53:31.103Z,3.03
2023-02-14T01:54:03.537Z,3.05
2023-02-14T01:54:35.993Z,3.02
2023-02-14T01:55:08.477Z,3.00
2023-02-14T01:55:40.953Z,3.00
2023-02-14T01:56:13.426Z,2.98
2023-02-14T01:56:45.898Z,2.95
2023-02-14T01:57:18.352Z,2.95
2023-02-14T01:57:50.842Z,2.92
2023-02-14T01:58:23.395Z,2.92
2023-02-14T01:58:55.851Z,2.89
2023-02-14T01:59:28.362Z,2.88
2023-02-14T02:00:00.873Z,2.91
2023-02-14T02:00:33.366Z,2.88
2023-02-14T02:01:05.889Z,2.87
2023-02-14T02:01:38.356Z,2.91
2023-02-14T02:02:10.853Z,2.89
2023-02-14T02:02:43.399Z,2.91
2023-02-14T02:03:15.759Z,2.89
2023-02-14T02:03:48.254Z,2.95
2023-02-14T02:04:20.743Z,2.97
2023-02-14T02:04:53.203Z,3.02
2023-02-14T02:05:25.693Z,3.03
2023-02-14T02:05:58.228Z,3.05
2023-02-14T02:06:30.677Z,3.05
2023-02-14T02:07:03.142Z,3.05
2023-02-14T02:07:35.634Z,3.05
2023-02-14T02:08:08.147Z,3.03
2023-02-14T02:08:40.583Z,3.02
2023-02-14T02:09:13.026Z,3.02
2023-02-14T02:09:45.506Z,2.98
2023-02-14T02:10:17.980Z,2.92
2023-02-14T02:10:50.479Z,2.89
2023-02-14T02:11:22.946Z,2.87
2023-02-14T02:11:55.453Z,2.82
2023-02-14T02:12:29.814Z,2.84
2023-02-14T02:13:00.543Z,2.79
2023-02-14T02:13:33.001Z,2.77
2023-02-14T02:14:05.462Z,2.79
2023-02-14T02:14:37.972Z,2.82
2023-02-14T02:15:10.403Z,2.82
2023-02-14T02:15:42.872Z,2.82
2023-02-14T02:16:15.418Z,2.87
2023-02-14T02:16:47.882Z,2.92
2023-02-14T02:17:20.260Z,2.94
2023-02-14T02:17:52.752Z,3.00
2023-02-14T02:18:25.248Z,2.98
2023-02-14T02:18:57.723Z,3.02
2023-02-14T02:19:30.214Z,3.03
2023-02-14T02:20:02.676Z,3.07
2023-02-14T02:20:35.130Z,3.09
2023-02-14T02:21:07.557Z,3.10
2023-02-14T02:21:40.008Z,3.09
2023-02-14T02:22:12.520Z,3.09
2023-02-14T02:22:45.043Z,3.09
2023-02-14T02:23:17.473Z,3.09
2023-02-14T02:23:49.926Z,3.09
2023-02-14T02:24:22.542Z,3.10
2023-02-14T02:24:55.046Z,3.12
2023-02-14T02:25:27.587Z,3.13
2023-02-14T02:26:00.051Z,3.12
2023-02-14T02:26:32.532Z,3.16
2023-02-14T02:27:05.036Z,3.13
2023-02-14T02:27:37.511Z,3.18
2023-02-14T02:28:09.950Z,3.16
2023-02-14T02:28:42.411Z,3.18
2023-02-14T02:29:14.884Z,3.18
2023-02-14T02:29:47.440Z,3.18
2023-02-14T02:30:19.919Z,3.18
2023-02-14T02:30:52.507Z,3.18
2023-02-14T02:31:24.897Z,3.18
2023-02-14T02:31:57.412Z,3.16
2023-02-14T02:32:29.766Z,3.16
2023-02-14T02:33:02.264Z,3.15
2023-02-14T02:33:34.751Z,3.15
2023-02-14T02:34:07.235Z,3.16
2023-02-14T02:34:39.701Z,3.13
2023-02-14T02:35:12.179Z,3.15
2023-02-14T02:35:44.667Z,3.10
2023-02-14T02:36:17.144Z,3.12
2023-02-14T02:36:49.600Z,3.10
2023-02-14T02:37:22.047Z,3.12
2023-02-14T02:37:54.523Z,3.10
2023-02-14T02:38:26.964Z,3.09
2023-02-14T02:38:59.428Z,3.06
2023-02-14T02:39:31.871Z,3.05
2023-02-14T02:40:04.361Z,3.03
2023-02-14T02:40:36.876Z,3.00
2023-02-14T02:41:09.336Z,2.98
2023-02-14T02:41:41.820Z,2.98
2023-02-14T02:42:14.333Z,2.95
2023-02-14T02:42:46.787Z,2.94
2023-02-14T02:43:19.245Z,2.92
2023-02-14T02:43:51.759Z,2.89
2023-02-14T02:44:24.244Z,2.87
2023-02-14T02:44:56.785Z,2.88
2023-02-14T02:45:29.182Z,2.85
2023-02-14T02:46:01.735Z,2.88
2023-02-14T02:46:34.171Z,2.91
2023-02-14T02:47:06.646Z,2.94
2023-02-14T02:47:39.171Z,2.91
2023-02-14T02:48:11.637Z,2.95
2023-02-14T02:48:44.070Z,2.94
2023-02-14T02:49:16.551Z,2.95
2023-02-14T02:49:49.021Z,2.97
2023-02-14T02:50:21.471Z,2.98
2023-02-14T02:50:53.997Z,3.00
2023-02-14T02:51:26.492Z,3.00
2023-02-14T02:51:58.939Z,2.98
2023-02-14T02:52:31.412Z,3.02
2023-02-14T02:53:03.891Z,3.03
2023-02-14T02:53:36.357Z,3.05
2023-02-14T02:54:08.821Z,3.05
2023-02-14T02:54:41.340Z,3.03
2023-02-14T02:55:13.804Z,3.06
2023-02-14T02:55:46.362Z,3.05
2023-02-14T02:56:18.834Z,3.06
2023-02-14T02:56:51.296Z,3.06
2023-02-14T02:57:23.790Z,3.03
2023-02-14T02:57:56.256Z,3.06
2023-02-14T02:58:28.691Z,3.05
2023-02-14T02:59:01.189Z,3.03
2023-02-14T02:59:33.667Z,3.03
2023-02-14T03:00:06.147Z,3.03
2023-02-14T03:00:38.654Z,3.05
2023-02-14T03:01:11.218Z,3.07
2023-02-14T03:01:43.719Z,3.10
2023-02-14T03:02:16.166Z,3.12
2023-02-14T03:02:48.867Z,3.18
2023-02-14T03:03:21.341Z,3.20
2023-02-14T03:03:53.812Z,3.20
2023-02-14T03:04:26.321Z,3.23
2023-02-14T03:04:58.736Z,3.23
2023-02-14T03:05:31.187Z,3.25
2023-02-14T03:06:03.706Z,3.25
2023-02-14T03:06:36.235Z,3.25
2023-02-14T03:07:08.747Z,3.27
2023-02-14T03:07:41.187Z,3.27
2023-02-14T03:08:13.646Z,3.28
2023-02-14T03:08:46.118Z,3.30
2023-02-14T03:09:18.573Z,3.30
2023-02-14T03:09:51.025Z,3.30
2023-02-14T03:10:23.479Z,3.30
2023-02-14T03:10:55.971Z,3.31
2023-02-14T03:11:28.423Z,3.34
2023-02-14T03:12:00.920Z,3.36
2023-02-14T03:12:33.351Z,3.36
2023-02-14T03:13:05.825Z,3.39
2023-02-14T03:13:38.293Z,3.39
2023-02-14T03:14:11.287Z,3.40
2023-02-14T03:14:43.786Z,3.39
2023-02-14T03:15:16.235Z,3.36
2023-02-14T03:15:48.753Z,3.39
2023-02-14T03:16:21.240Z,3.36
2023-02-14T03:16:53.715Z,3.39
2023-02-14T03:17:26.215Z,3.40
2023-02-14T03:17:58.693Z,3.40
2023-02-14T03:18:31.161Z,3.42
2023-02-14T03:19:03.638Z,3.39
2023-02-14T03:19:36.137Z,3.42
2023-02-14T03:20:08.717Z,3.42
2023-02-14T03:20:41.163Z,3.40
2023-02-14T03:21:13.640Z,3.39
2023-02-14T03:21:46.152Z,3.40
2023-02-14T03:22:18.627Z,3.36
2023-02-14T03:22:51.326Z,3.36
2023-02-14T03:23:23.618Z,3.36
2023-02-14T03:23:56.173Z,3.39
2023-02-14T03:24:28.634Z,3.36
2023-02-14T03:25:01.119Z,3.36
2023-02-14T03:25:33.612Z,3.39
2023-02-14T03:26:06.116Z,3.42
2023-02-14T03:26:38.607Z,3.42
2023-02-14T03:27:11.098Z,3.42
2023-02-14T03:27:43.567Z,3.42
2023-02-14T03:28:16.048Z,3.43
2023-02-14T03:28:48.508Z,3.42
2023-02-14T03:29:20.964Z,3.40
2023-02-14T03:29:53.460Z,3.39
2023-02-14T03:30:25.933Z,3.36
2023-02-14T03:30:58.749Z,3.34
2023-02-14T03:31:30.916Z,3.36
2023-02-14T03:32:03.318Z,3.36
2023-02-14T03:32:35.690Z,3.34
2023-02-14T03:33:08.135Z,3.36
2023-02-14T03:33:40.556Z,3.36
2023-02-14T03:34:13.036Z,3.39
2023-02-14T03:34:45.480Z,3.39
2023-02-14T03:35:17.946Z,3.39
2023-02-14T03:35:50.353Z,3.40
2023-02-14T03:36:22.837Z,3.40
2023-02-14T03:36:55.334Z,3.40
2023-02-14T03:37:27.808Z,3.40
2023-02-14T03:38:00.321Z,3.40
2023-02-14T03:38:32.788Z,3.40
2023-02-14T03:39:05.232Z,3.39
2023-02-14T03:39:37.675Z,3.36
2023-02-14T03:40:10.187Z,3.36
2023-02-14T03:40:42.644Z,3.34
2023-02-14T03:41:15.170Z,3.33
2023-02-14T03:41:47.638Z,3.34
2023-02-14T03:42:20.082Z,3.34
2023-02-14T03:42:52.541Z,3.34
2023-02-14T03:43:25.019Z,3.36
2023-02-14T03:43:57.482Z,3.34
2023-02-14T03:44:29.952Z,3.34
2023-02-14T03:45:02.550Z,3.33
2023-02-14T03:45:34.943Z,3.33
2023-02-14T03:46:07.474Z,3.31
2023-02-14T03:46:39.889Z,3.31
2023-02-14T03:47:12.347Z,3.30
2023-02-14T03:47:44.822Z,3.28
2023-02-14T03:48:17.257Z,3.28
2023-02-14T03:48:49.801Z,3.28
2023-02-14T03:49:22.280Z,3.30
2023-02-14T03:49:54.735Z,3.28
2023-02-14T03:50:27.220Z,3.28
2023-02-14T03:50:59.963Z,3.25
2023-02-14T03:51:32.251Z,3.28
2023-02-14T03:52:04.713Z,3.27
2023-02-14T03:52:37.177Z,3.27
2023-02-14T03:53:09.680Z,3.27
2023-02-14T03:53:42.127Z,3.25
2023-02-14T03:54:14.639Z,3.27
2023-02-14T03:54:47.123Z,3.24
2023-02-14T03:55:19.593Z,3.25
2023-02-14T03:55:52.076Z,3.27
2023-02-14T03:56:24.532Z,3.30
2023-02-14T03:56:57.066Z,3.28
2023-02-14T03:57:29.542Z,3.33
2023-02-14T03:58:02.013Z,3.30
2023-02-14T03:58:34.467Z,3.27
2023-02-14T03:59:06.927Z,3.30
2023-02-14T03:59:39.489Z,3.28
2023-02-14T04:00:11.957Z,3.30
2023-02-14T04:00:44.428Z,3.28
2023-02-14T04:01:16.915Z,3.27
2023-02-14T04:01:49.409Z,3.25
2023-02-14T04:02:21.835Z,3.24
2023-02-14T04:02:54.258Z,3.23
2023-02-14T04:03:26.809Z,3.20
2023-02-14T04:03:59.208Z,3.16
2023-02-14T04:04:31.640Z,3.15
2023-02-14T04:05:04.122Z,3.13
2023-02-14T04:05:36.584Z,3.09
2023-02-14T04:06:09.056Z,3.06
2023-02-14T04:06:41.537Z,3.05
2023-02-14T04:07:13.995Z,3.03
2023-02-14T04:07:46.454Z,3.02
2023-02-14T04:08:18.916Z,3.02
2023-02-14T04:08:51.418Z,3.00
2023-02-14T04:09:23.902Z,3.00
2023-02-14T04:09:56.329Z,3.00
2023-02-14T04:10:28.806Z,3.00
2023-02-14T04:11:01.607Z,2.98
2023-02-14T04:11:33.774Z,3.00
2023-02-14T04:12:06.236Z,2.97
2023-02-14T04:12:38.657Z,2.97
2023-02-14T04:13:11.129Z,2.95
2023-02-14T04:13:43.571Z,2.94
2023-02-14T04:14:16.018Z,2.94
2023-02-14T04:14:48.483Z,2.92
2023-02-14T04:15:20.949Z,2.92
2023-02-14T04:15:53.466Z,2.94
2023-02-14T04:16:25.948Z,2.94
2023-02-14T04:16:58.413Z,2.97
2023-02-14T04:17:30.865Z,2.98
2023-02-14T04:18:03.345Z,2.98
2023-02-14T04:18:35.835Z,2.98
2023-02-14T04:19:08.372Z,2.98
2023-02-14T04:19:40.823Z,2.98
2023-02-14T04:20:13.289Z,3.00
2023-02-14T04:20:45.722Z,3.02
2023-02-14T04:21:18.203Z,3.02
2023-02-14T04:21:50.691Z,3.02
2023-02-14T04:22:23.142Z,3.06
2023-02-14T04:22:55.621Z,3.05
2023-02-14T04:23:28.113Z,3.05
2023-02-14T04:24:00.614Z,3.03
2023-02-14T04:24:33.046Z,3.03
2023-02-14T04:25:05.497Z,3.00
2023-02-14T04:25:37.926Z,3.00
2023-02-14T04:26:10.368Z,2.98
2023-02-14T04:26:43.804Z,2.95
2023-02-14T04:27:16.401Z,2.92
2023-02-14T04:27:48.891Z,2.92
2023-02-14T04:28:21.364Z,2.89
2023-02-14T04:28:53.820Z,2.89
2023-02-14T04:29:26.267Z,2.85
2023-02-14T04:29:58.895Z,2.85
2023-02-14T04:30:31.415Z,2.84
2023-02-14T04:31:04.133Z,2.82
2023-02-14T04:31:36.332Z,2.84
2023-02-14T04:32:08.890Z,2.84
2023-02-14T04:32:41.185Z,2.82
2023-02-14T04:33:13.651Z,2.81
2023-02-14T04:33:46.161Z,2.81
2023-02-14T04:34:18.588Z,2.79
2023-02-14T04:34:51.062Z,2.79
2023-02-14T04:35:23.546Z,2.79
2023-02-14T04:35:56.038Z,2.77
2023-02-14T04:36:28.521Z,2.79
2023-02-14T04:37:00.992Z,2.81
2023-02-14T04:37:33.489Z,2.81
2023-02-14T04:38:05.943Z,2.82
2023-02-14T04:38:38.379Z,2.84
2023-02-14T04:39:10.831Z,2.85
2023-02-14T04:39:43.292Z,2.85
2023-02-14T04:40:15.746Z,2.81
2023-02-14T04:40:48.191Z,2.82
2023-02-14T04:41:20.636Z,2.81
2023-02-14T04:41:53.117Z,2.81
2023-02-14T04:42:25.596Z,2.81
2023-02-14T04:42:58.073Z,2.81
2023-02-14T04:43:30.529Z,2.82
2023-02-14T04:44:03.171Z,2.84
2023-02-14T04:44:35.656Z,2.82
2023-02-14T04:45:08.140Z,2.82
2023-02-14T04:45:40.621Z,2.82
2023-02-14T04:46:13.149Z,2.82
2023-02-14T04:46:45.640Z,2.84
2023-02-14T04:47:18.033Z,2.82
2023-02-14T04:47:50.493Z,2.81
2023-02-14T04:48:22.973Z,2.79
2023-02-14T04:48:55.454Z,2.81
2023-02-14T04:49:27.979Z,2.79
2023-02-14T04:50:00.465Z,2.76
2023-02-14T04:50:32.899Z,2.79
2023-02-14T04:51:05.394Z,2.76
2023-02-14T04:51:37.871Z,2.76
2023-02-14T04:52:10.389Z,2.74
2023-02-14T04:52:42.797Z,2.76
2023-02-14T04:53:15.253Z,2.73
2023-02-14T04:53:47.699Z,2.76
2023-02-14T04:54:20.181Z,2.73
2023-02-14T04:54:52.743Z,2.77
2023-02-14T04:55:25.254Z,2.76
2023-02-14T04:55:57.690Z,2.79
2023-02-14T04:56:30.118Z,2.79
2023-02-14T04:57:02.698Z,2.81
2023-02-14T04:57:35.180Z,2.79
2023-02-14T04:58:07.665Z,2.81
2023-02-14T04:58:40.087Z,2.84
2023-02-14T04:59:12.640Z,2.84
2023-02-14T04:59:45.104Z,2.81
2023-02-14T05:00:17.646Z,2.84
2023-02-14T05:00:50.346Z,2.82
2023-02-14T05:01:22.710Z,2.85
2023-02-14T05:01:55.189Z,2.84
2023-02-14T05:02:27.700Z,2.84
2023-02-14T05:03:00.115Z,2.81
2023-02-14T05:03:32.552Z,2.82
2023-02-14T05:04:04.997Z,2.79
2023-02-14T05:04:37.444Z,2.81
2023-02-14T05:05:09.916Z,2.79
2023-02-14T05:05:42.388Z,2.81
2023-02-14T05:06:15.397Z,2.81
2023-02-14T05:06:47.931Z,2.81
2023-02-14T05:07:20.404Z,2.76
2023-02-14T05:07:52.868Z,2.77
2023-02-14T05:08:25.378Z,2.74
2023-02-14T05:08:57.850Z,2.77
2023-02-14T05:09:30.361Z,2.77
2023-02-14T05:10:02.861Z,2.77
2023-02-14T05:10:35.363Z,2.77
2023-02-14T05:11:07.793Z,2.77
2023-02-14T05:11:40.253Z,2.76
2023-02-14T05:12:12.684Z,2.76
2023-02-14T05:12:45.198Z,2.73
2023-02-14T05:13:17.664Z,2.73
2023-02-14T05:13:50.130Z,2.71
2023-02-14T05:14:22.592Z,2.69
2023-02-14T05:15:02.133Z,2.66
2023-02-14T05:15:36.796Z,2.63
2023-02-14T05:16:07.759Z,2.58
2023-02-14T05:16:40.213Z,2.55
2023-02-14T05:17:12.638Z,2.51
2023-02-14T05:17:45.103Z,2.48
2023-02-14T05:18:17.582Z,2.44
2023-02-14T05:18:50.123Z,2.40
2023-02-14T05:19:22.720Z,2.35
2023-02-14T05:19:55.279Z,2.33
2023-02-14T05:20:27.748Z,2.28
2023-02-14T05:21:00.573Z,2.28
2023-02-14T05:21:32.672Z,2.28
2023-02-14T05:22:05.267Z,2.31
2023-02-14T05:22:37.736Z,2.33
2023-02-14T05:23:10.258Z,2.34
2023-02-14T05:23:42.719Z,2.31
2023-02-14T05:24:15.180Z,2.35
2023-02-14T05:24:47.601Z,2.31
2023-02-14T05:25:20.129Z,2.33
2023-02-14T05:25:52.586Z,2.31
2023-02-14T05:26:25.117Z,2.28
2023-02-14T05:26:57.612Z,2.27
2023-02-14T05:27:30.078Z,2.27
2023-02-14T05:28:02.616Z,2.27
2023-02-14T05:28:35.094Z,2.26
2023-02-14T05:29:07.569Z,2.26
2023-02-14T05:29:40.009Z,2.23
2023-02-14T05:30:12.547Z,2.19
2023-02-14T05:30:45.053Z,2.20
2023-02-14T05:31:17.575Z,2.22
2023-02-14T05:31:49.966Z,2.26
2023-02-14T05:32:22.475Z,2.28
2023-02-14T05:32:54.958Z,2.30
2023-02-14T05:33:27.429Z,2.33
2023-02-14T05:33:59.913Z,2.33
2023-02-14T05:34:32.431Z,2.31
2023-02-14T05:35:04.906Z,2.33
2023-02-14T05:35:37.382Z,2.33
2023-02-14T05:36:09.846Z,2.34
2023-02-14T05:36:42.309Z,2.34
2023-02-14T05:37:14.829Z,2.35
2023-02-14T05:37:47.317Z,2.37
2023-02-14T05:38:19.809Z,2.35
2023-02-14T05:38:52.311Z,2.38
2023-02-14T05:39:24.788Z,2.35
2023-02-14T05:39:57.254Z,2.35
2023-02-14T05:40:29.725Z,2.37
2023-02-14T05:41:02.404Z,2.37
2023-02-14T05:41:34.675Z,2.37
2023-02-14T05:42:07.119Z,2.35
2023-02-14T05:42:39.574Z,2.35
2023-02-14T05:43:12.045Z,2.31
2023-02-14T05:43:44.492Z,2.31
2023-02-14T05:44:16.983Z,2.30
2023-02-14T05:44:49.463Z,2.30
2023-02-14T05:45:21.919Z,2.28
2023-02-14T05:45:54.456Z,2.28
2023-02-14T05:46:26.880Z,2.31
2023-02-14T05:46:59.443Z,2.31
2023-02-14T05:47:31.942Z,2.30
2023-02-14T05:48:04.435Z,2.31
2023-02-14T05:48:36.923Z,2.28
2023-02-14T05:49:09.428Z,2.28
2023-02-14T05:49:41.959Z,2.28
2023-02-14T05:50:14.451Z,2.28
2023-02-14T05:50:46.959Z,2.28
2023-02-14T05:51:19.429Z,2.27
2023-02-14T05:51:51.990Z,2.26
2023-02-14T05:52:24.471Z,2.30
2023-02-14T05:52:56.932Z,2.28
2023-02-14T05:53:29.353Z,2.30
2023-02-14T05:54:01.912Z,2.31
2023-02-14T05:54:34.366Z,2.31
2023-02-14T05:55:06.837Z,2.31
2023-02-14T05:55:39.321Z,2.31
2023-02-14T05:56:11.778Z,2.31
2023-02-14T05:56:44.193Z,2.30
2023-02-14T05:57:16.657Z,2.31
2023-02-14T05:57:49.146Z,2.30
2023-02-14T05:58:21.647Z,2.30
2023-02-14T05:58:54.153Z,2.31
2023-02-14T05:59:26.636Z,2.30
2023-02-14T05:59:59.151Z,2.30
2023-02-14T06:00:31.744Z,2.30
2023-02-14T06:01:04.170Z,2.30
2023-02-14T06:01:36.639Z,2.28
2023-02-14T06:02:09.348Z,2.28
2023-02-14T06:02:41.715Z,2.28
2023-02-14T06:03:17.044Z,2.27
2023-02-14T06:03:53.974Z,2.26
2023-02-14T06:04:26.537Z,2.27
2023-02-14T06:04:58.962Z,2.26
2023-02-14T06:05:31.591Z,2.23
2023-02-14T06:06:04.613Z,2.23
2023-02-14T06:06:37.131Z,2.22
2023-02-14T06:07:09.646Z,2.23
2023-02-14T06:07:42.206Z,2.23
2023-02-14T06:08:14.691Z,2.23
2023-02-14T06:08:47.210Z,2.23
2023-02-14T06:09:19.787Z,2.22
2023-02-14T06:09:52.342Z,2.23
2023-02-14T06:10:24.792Z,2.23
2023-02-14T06:10:57.387Z,2.26
2023-02-14T06:11:29.729Z,2.22
2023-02-14T06:12:02.262Z,2.23
2023-02-14T06:12:36.157Z,2.26
2023-02-14T06:13:09.052Z,2.23
2023-02-14T06:13:41.819Z,2.23
2023-02-14T06:14:14.312Z,2.22
2023-02-14T06:14:46.778Z,2.19
2023-02-14T06:15:19.262Z,2.19
2023-02-14T06:15:51.726Z,2.17
2023-02-14T06:16:24.317Z,2.17
2023-02-14T06:16:56.827Z,2.13
2023-02-14T06:17:29.218Z,2.13
2023-02-14T06:18:01.773Z,2.09
2023-02-14T06:18:34.302Z,2.08
2023-02-14T06:19:06.806Z,2.04
2023-02-14T06:19:39.263Z,2.02
2023-02-14T06:20:11.755Z,1.98
2023-02-14T06:20:44.240Z,1.97
2023-02-14T06:21:16.780Z,1.91
2023-02-14T06:21:49.293Z,1.91
2023-02-14T06:22:21.788Z,1.87
2023-02-14T06:22:54.290Z,1.85
2023-02-14T06:23:26.822Z,1.83
2023-02-14T06:23:59.334Z,1.82
2023-02-14T06:24:31.882Z,1.79
2023-02-14T06:25:04.410Z,1.79
2023-02-14T06:25:36.888Z,1.78
2023-02-14T06:26:09.334Z,1.78
2023-02-14T06:26:41.848Z,1.76
2023-02-14T06:27:14.328Z,1.76
2023-02-14T06:27:48.268Z,1.76
2023-02-14T06:28:19.227Z,1.75
2023-02-14T06:28:51.683Z,1.73
2023-02-14T06:29:24.137Z,1.76
2023-02-14T06:29:56.702Z,1.75
2023-02-14T06:30:29.241Z,1.75
2023-02-14T06:31:02.053Z,1.73
2023-02-14T06:31:34.171Z,1.73
2023-02-14T06:32:06.770Z,1.72
2023-02-14T06:32:39.111Z,1.72
2023-02-14T06:33:11.677Z,1.69
2023-02-14T06:33:44.145Z,1.71
2023-02-14T06:34:16.634Z,1.65
2023-02-14T06:34:49.115Z,1.68
2023-02-14T06:35:21.605Z,1.68
2023-02-14T06:35:54.116Z,1.65
2023-02-14T06:36:26.559Z,1.62
2023-02-14T06:36:59.072Z,1.64
2023-02-14T06:37:31.617Z,1.62
2023-02-14T06:38:04.120Z,1.58
2023-02-14T06:38:36.568Z,1.60
2023-02-14T06:39:09.044Z,1.61
2023-02-14T06:39:41.578Z,1.60
2023-02-14T06:40:14.017Z,1.58
2023-02-14T06:40:46.497Z,1.60
2023-02-14T06:41:19.049Z,1.60
2023-02-14T06:41:51.399Z,1.58
2023-02-14T06:42:23.850Z,1.61
2023-02-14T06:42:56.332Z,1.60
2023-02-14T06:43:28.779Z,1.60
2023-02-14T06:44:01.289Z,1.60
2023-02-14T06:44:33.756Z,1.60
2023-02-14T06:45:06.236Z,1.57
2023-02-14T06:45:38.811Z,1.58
2023-02-14T06:46:11.329Z,1.57
2023-02-14T06:46:43.787Z,1.55
2023-02-14T06:47:16.252Z,1.54
2023-02-14T06:47:48.729Z,1.55
2023-02-14T06:48:21.181Z,1.52
2023-02-14T06:48:53.717Z,1.52
2023-02-14T06:49:26.157Z,1.50
2023-02-14T06:49:58.682Z,1.51
2023-02-14T06:50:31.178Z,1.51
2023-02-14T06:51:03.654Z,1.46
2023-02-14T06:51:36.177Z,1.43
2023-02-14T06:52:08.815Z,1.42
2023-02-14T06:52:41.285Z,1.39
2023-02-14T06:53:13.779Z,1.40
2023-02-14T06:53:46.342Z,1.39
2023-02-14T06:54:18.856Z,1.39
2023-02-14T06:54:51.479Z,1.40
2023-02-14T06:55:23.928Z,1.42
2023-02-14T06:55:56.426Z,1.43
2023-02-14T06:56:28.905Z,1.44
2023-02-14T06:57:01.532Z,1.46
2023-02-14T06:57:34.181Z,1.51
2023-02-14T06:58:06.722Z,1.50
2023-02-14T06:58:39.172Z,1.55
2023-02-14T06:59:11.613Z,1.57
2023-02-14T06:59:44.085Z,1.61
2023-02-14T07:00:16.516Z,1.61
2023-02-14T07:00:49.026Z,1.64
2023-02-14T07:01:21.508Z,1.65
2023-02-14T07:01:54.082Z,1.65
2023-02-14T07:02:26.513Z,1.68
2023-02-14T07:02:59.060Z,1.69
2023-02-14T07:03:31.447Z,1.68
2023-02-14T07:04:03.975Z,1.68
2023-02-14T07:04:36.473Z,1.64
2023-02-14T07:05:08.957Z,1.65
2023-02-14T07:05:41.414Z,1.64
2023-02-14T07:06:13.848Z,1.61
2023-02-14T07:06:46.316Z,1.62
2023-02-14T07:07:18.768Z,1.62
2023-02-14T07:07:51.242Z,1.60
2023-02-14T07:08:25.894Z,1.58
2023-02-14T07:08:56.233Z,1.58
2023-02-14T07:09:28.720Z,1.55
2023-02-14T07:10:01.195Z,1.52
2023-02-14T07:10:33.706Z,1.51
2023-02-14T07:11:06.295Z,1.52
2023-02-14T07:11:38.765Z,1.47
2023-02-14T07:12:11.251Z,1.47
2023-02-14T07:12:43.697Z,1.44